sensor_id;sensor_type;location;lat;lon;timestamp;pressure;altitude;pressure_sealevel;temperature;humidity
10460;BME280;54412;51.206;6.888;2022-10-01T00:01:07;100005.00;;;13.30;62.18
10460;BME280;54412;51.206;6.888;2022-10-01T00:03:35;100002.66;;;13.38;62.16
10460;BME280;54412;51.206;6.888;2022-10-01T00:06:04;100001.94;;;13.36;62.10
10460;BME280;54412;51.206;6.888;2022-10-01T00:08:32;100007.81;;;13.52;62.00
10460;BME280;54412;51.206;6.888;2022-10-01T00:10:58;100004.75;;;13.58;61.78
10460;BME280;54412;51.206;6.888;2022-10-01T00:13:28;100007.47;;;13.56;61.67
10460;BME280;54412;51.206;6.888;2022-10-01T00:15:56;100025.47;;;13.64;61.79
10460;BME280;54412;51.206;6.888;2022-10-01T00:18:23;100019.97;;;13.67;61.90
10460;BME280;54412;51.206;6.888;2022-10-01T00:20:49;100005.16;;;13.52;62.85
10460;BME280;54412;51.206;6.888;2022-10-01T00:23:14;100006.84;;;13.53;63.27
10460;BME280;54412;51.206;6.888;2022-10-01T00:25:40;99998.34;;;13.60;63.36
10460;BME280;54412;51.206;6.888;2022-10-01T00:28:08;99989.28;;;13.52;64.34
10460;BME280;54412;51.206;6.888;2022-10-01T00:30:33;100001.28;;;13.32;65.34
10460;BME280;54412;51.206;6.888;2022-10-01T00:32:59;99994.50;;;13.41;65.63
10460;BME280;54412;51.206;6.888;2022-10-01T00:35:25;99983.50;;;13.34;66.33
10460;BME280;54412;51.206;6.888;2022-10-01T00:37:51;99986.78;;;13.38;66.64
10460;BME280;54412;51.206;6.888;2022-10-01T00:40:19;99973.75;;;13.22;67.55
10460;BME280;54412;51.206;6.888;2022-10-01T00:42:46;99978.75;;;13.14;68.49
10460;BME280;54412;51.206;6.888;2022-10-01T00:45:14;99971.25;;;13.08;68.66
10460;BME280;54412;51.206;6.888;2022-10-01T00:47:55;99967.84;;;12.94;69.78
10460;BME280;54412;51.206;6.888;2022-10-01T00:50:31;99963.09;;;12.99;70.30
10460;BME280;54412;51.206;6.888;2022-10-01T00:53:02;99942.22;;;12.82;71.21
10460;BME280;54412;51.206;6.888;2022-10-01T00:55:32;99930.78;;;13.06;70.98
10460;BME280;54412;51.206;6.888;2022-10-01T00:58:02;99918.28;;;12.96;71.64
10460;BME280;54412;51.206;6.888;2022-10-01T01:00:30;99914.91;;;12.94;71.62
10460;BME280;54412;51.206;6.888;2022-10-01T01:02:56;99909.44;;;12.72;72.68
10460;BME280;54412;51.206;6.888;2022-10-01T01:05:22;99908.19;;;12.65;73.36
10460;BME280;54412;51.206;6.888;2022-10-01T01:07:51;99905.00;;;12.59;73.85
10460;BME280;54412;51.206;6.888;2022-10-01T01:10:29;99907.09;;;12.67;73.70
10460;BME280;54412;51.206;6.888;2022-10-01T01:13:31;99898.44;;;12.52;74.51
10460;BME280;54412;51.206;6.888;2022-10-01T01:16:11;99891.03;;;12.45;75.29
10460;BME280;54412;51.206;6.888;2022-10-01T01:19:01;99898.25;;;12.43;75.40
10460;BME280;54412;51.206;6.888;2022-10-01T01:21:35;99883.41;;;12.53;75.07
10460;BME280;54412;51.206;6.888;2022-10-01T01:29:50;99870.44;;;12.37;76.34
10460;BME280;54412;51.206;6.888;2022-10-01T01:32:25;99863.44;;;12.36;77.14
10460;BME280;54412;51.206;6.888;2022-10-01T01:34:54;99864.28;;;12.37;77.12
10460;BME280;54412;51.206;6.888;2022-10-01T01:37:25;99840.78;;;12.32;77.18
10460;BME280;54412;51.206;6.888;2022-10-01T01:39:55;99838.69;;;12.37;77.50
10460;BME280;54412;51.206;6.888;2022-10-01T01:42:30;99823.88;;;12.22;78.21
10460;BME280;54412;51.206;6.888;2022-10-01T01:45:00;99824.94;;;12.20;78.76
10460;BME280;54412;51.206;6.888;2022-10-01T01:47:29;99813.94;;;12.01;79.22
10460;BME280;54412;51.206;6.888;2022-10-01T01:49:59;99797.69;;;11.94;80.51
10460;BME280;54412;51.206;6.888;2022-10-01T01:52:28;99769.00;;;12.01;80.48
10460;BME280;54412;51.206;6.888;2022-10-01T01:54:56;99758.44;;;12.01;80.20
10460;BME280;54412;51.206;6.888;2022-10-01T01:57:22;99751.56;;;11.86;80.72
10460;BME280;54412;51.206;6.888;2022-10-01T01:59:48;99762.13;;;11.98;80.77
10460;BME280;54412;51.206;6.888;2022-10-01T02:02:18;99771.25;;;11.94;81.00
10460;BME280;54412;51.206;6.888;2022-10-01T02:04:54;99768.78;;;11.91;81.21
10460;BME280;54412;51.206;6.888;2022-10-01T02:13:38;99781.38;;;12.00;80.97
10460;BME280;54412;51.206;6.888;2022-10-01T02:19:15;99779.69;;;11.99;81.50
10460;BME280;54412;51.206;6.888;2022-10-01T02:21:57;99783.72;;;12.05;81.12
10460;BME280;54412;51.206;6.888;2022-10-01T02:24:40;99779.69;;;12.12;81.36
10460;BME280;54412;51.206;6.888;2022-10-01T02:27:19;99798.50;;;12.07;80.71
10460;BME280;54412;51.206;6.888;2022-10-01T02:29:47;99794.59;;;12.13;81.12
10460;BME280;54412;51.206;6.888;2022-10-01T02:32:17;99794.16;;;12.31;80.45
10460;BME280;54412;51.206;6.888;2022-10-01T02:34:44;99793.66;;;12.14;80.59
10460;BME280;54412;51.206;6.888;2022-10-01T02:37:12;99797.66;;;12.19;81.12
10460;BME280;54412;51.206;6.888;2022-10-01T02:39:40;99793.84;;;12.23;80.75
10460;BME280;54412;51.206;6.888;2022-10-01T02:42:13;99802.63;;;12.11;81.75
10460;BME280;54412;51.206;6.888;2022-10-01T02:44:43;99796.72;;;12.08;81.99
10460;BME280;54412;51.206;6.888;2022-10-01T02:49:45;99768.91;;;12.02;82.48
10460;BME280;54412;51.206;6.888;2022-10-01T02:52:39;99758.66;;;11.98;83.52
10460;BME280;54412;51.206;6.888;2022-10-01T02:55:21;99762.09;;;12.23;82.57
10460;BME280;54412;51.206;6.888;2022-10-01T02:57:49;99738.56;;;11.95;83.49
10460;BME280;54412;51.206;6.888;2022-10-01T03:00:17;99730.53;;;11.97;83.71
10460;BME280;54412;51.206;6.888;2022-10-01T03:02:47;99735.19;;;11.93;84.64
10460;BME280;54412;51.206;6.888;2022-10-01T03:05:15;99743.56;;;11.87;85.02
10460;BME280;54412;51.206;6.888;2022-10-01T03:07:41;99731.16;;;12.00;83.95
10460;BME280;54412;51.206;6.888;2022-10-01T03:10:09;99740.25;;;11.96;84.26
10460;BME280;54412;51.206;6.888;2022-10-01T03:12:36;99714.16;;;12.04;83.88
10460;BME280;54412;51.206;6.888;2022-10-01T03:15:03;99709.22;;;11.87;84.71
10460;BME280;54412;51.206;6.888;2022-10-01T03:17:29;99697.06;;;11.85;85.71
10460;BME280;54412;51.206;6.888;2022-10-01T03:19:54;99698.84;;;11.84;85.34
10460;BME280;54412;51.206;6.888;2022-10-01T03:22:22;99700.97;;;11.79;85.70
10460;BME280;54412;51.206;6.888;2022-10-01T03:24:49;99712.38;;;11.80;85.94
10460;BME280;54412;51.206;6.888;2022-10-01T03:27:16;99699.16;;;11.92;85.28
10460;BME280;54412;51.206;6.888;2022-10-01T03:29:42;99691.13;;;11.94;84.81
10460;BME280;54412;51.206;6.888;2022-10-01T03:32:08;99694.06;;;11.89;85.77
10460;BME280;54412;51.206;6.888;2022-10-01T03:34:34;99684.56;;;11.99;85.56
10460;BME280;54412;51.206;6.888;2022-10-01T03:37:00;99693.53;;;11.97;85.66
10460;BME280;54412;51.206;6.888;2022-10-01T03:39:26;99669.16;;;11.81;86.06
10460;BME280;54412;51.206;6.888;2022-10-01T03:41:51;99663.63;;;11.84;86.45
10460;BME280;54412;51.206;6.888;2022-10-01T03:44:17;99657.00;;;11.78;86.78
10460;BME280;54412;51.206;6.888;2022-10-01T03:46:43;99651.78;;;11.89;86.94
10460;BME280;54412;51.206;6.888;2022-10-01T03:49:09;99645.25;;;11.82;86.72
10460;BME280;54412;51.206;6.888;2022-10-01T03:51:36;99643.19;;;11.75;86.89
10460;BME280;54412;51.206;6.888;2022-10-01T03:54:04;99641.13;;;12.03;85.63
10460;BME280;54412;51.206;6.888;2022-10-01T03:56:30;99644.06;;;11.99;86.07
10460;BME280;54412;51.206;6.888;2022-10-01T03:58:55;99632.59;;;11.87;85.96
10460;BME280;54412;51.206;6.888;2022-10-01T04:01:21;99643.59;;;11.81;86.83
10460;BME280;54412;51.206;6.888;2022-10-01T04:03:47;99633.41;;;11.88;86.55
10460;BME280;54412;51.206;6.888;2022-10-01T04:06:15;99644.38;;;12.07;85.61
10460;BME280;54412;51.206;6.888;2022-10-01T04:08:41;99629.97;;;12.11;84.81
10460;BME280;54412;51.206;6.888;2022-10-01T04:11:07;99654.75;;;11.97;85.44
10460;BME280;54412;51.206;6.888;2022-10-01T04:13:34;99631.72;;;11.99;86.28
10460;BME280;54412;51.206;6.888;2022-10-01T04:16:01;99626.66;;;11.84;86.04
10460;BME280;54412;51.206;6.888;2022-10-01T04:18:27;99610.25;;;11.91;86.19
10460;BME280;54412;51.206;6.888;2022-10-01T04:20:53;99612.72;;;11.82;86.62
10460;BME280;54412;51.206;6.888;2022-10-01T04:23:18;99641.97;;;11.91;86.00
10460;BME280;54412;51.206;6.888;2022-10-01T04:25:44;99658.34;;;11.96;85.61
10460;BME280;54412;51.206;6.888;2022-10-01T04:28:11;99643.19;;;12.11;84.83
10460;BME280;54412;51.206;6.888;2022-10-01T04:30:42;99629.97;;;12.11;84.89
10460;BME280;54412;51.206;6.888;2022-10-01T04:33:12;99627.44;;;12.09;85.11
10460;BME280;54412;51.206;6.888;2022-10-01T04:35:39;99634.78;;;11.93;85.85
10460;BME280;54412;51.206;6.888;2022-10-01T04:38:09;99646.31;;;11.92;85.63
10460;BME280;54412;51.206;6.888;2022-10-01T04:40:37;99645.44;;;12.04;85.69
10460;BME280;54412;51.206;6.888;2022-10-01T04:43:05;99661.03;;;12.20;85.00
10460;BME280;54412;51.206;6.888;2022-10-01T04:45:35;99656.59;;;12.20;85.02
10460;BME280;54412;51.206;6.888;2022-10-01T04:48:00;99659.13;;;12.22;84.60
10460;BME280;54412;51.206;6.888;2022-10-01T04:50:27;99644.19;;;12.33;84.18
10460;BME280;54412;51.206;6.888;2022-10-01T04:52:53;99640.47;;;12.36;84.35
10460;BME280;54412;51.206;6.888;2022-10-01T04:55:20;99629.25;;;12.32;84.44
10460;BME280;54412;51.206;6.888;2022-10-01T04:57:46;99629.94;;;12.23;84.75
10460;BME280;54412;51.206;6.888;2022-10-01T05:00:19;99632.56;;;12.23;84.93
10460;BME280;54412;51.206;6.888;2022-10-01T05:02:47;99610.91;;;12.18;84.75
10460;BME280;54412;51.206;6.888;2022-10-01T05:05:15;99604.56;;;12.21;85.34
10460;BME280;54412;51.206;6.888;2022-10-01T05:07:41;99604.03;;;12.28;85.60
10460;BME280;54412;51.206;6.888;2022-10-01T05:10:14;99598.78;;;12.39;85.04
10460;BME280;54412;51.206;6.888;2022-10-01T05:12:41;99607.28;;;12.32;85.29
10460;BME280;54412;51.206;6.888;2022-10-01T05:15:08;99610.06;;;12.18;86.48
10460;BME280;54412;51.206;6.888;2022-10-01T05:17:34;99610.66;;;12.34;85.83
10460;BME280;54412;51.206;6.888;2022-10-01T05:20:01;99617.00;;;12.31;86.05
10460;BME280;54412;51.206;6.888;2022-10-01T05:22:27;99626.19;;;12.38;85.54
10460;BME280;54412;51.206;6.888;2022-10-01T05:24:53;99620.56;;;12.43;85.63
10460;BME280;54412;51.206;6.888;2022-10-01T05:27:19;99604.97;;;12.27;86.53
10460;BME280;54412;51.206;6.888;2022-10-01T05:29:45;99620.03;;;12.38;86.16
10460;BME280;54412;51.206;6.888;2022-10-01T05:32:11;99623.47;;;12.27;86.49
10460;BME280;54412;51.206;6.888;2022-10-01T05:34:38;99626.84;;;12.29;87.09
10460;BME280;54412;51.206;6.888;2022-10-01T05:37:05;99618.81;;;12.31;87.52
10460;BME280;54412;51.206;6.888;2022-10-01T05:39:31;99625.38;;;12.49;86.53
10460;BME280;54412;51.206;6.888;2022-10-01T05:41:58;99617.22;;;12.52;86.62
10460;BME280;54412;51.206;6.888;2022-10-01T05:44:24;99631.03;;;12.44;87.07
10460;BME280;54412;51.206;6.888;2022-10-01T05:46:52;99624.22;;;12.53;86.65
10460;BME280;54412;51.206;6.888;2022-10-01T05:49:17;99622.03;;;12.82;85.15
10460;BME280;54412;51.206;6.888;2022-10-01T05:51:44;99625.31;;;12.85;84.71
10460;BME280;54412;51.206;6.888;2022-10-01T05:54:11;99635.34;;;12.69;85.24
10460;BME280;54412;51.206;6.888;2022-10-01T05:56:37;99628.72;;;12.63;85.68
10460;BME280;54412;51.206;6.888;2022-10-01T05:59:04;99634.91;;;12.51;86.23
10460;BME280;54412;51.206;6.888;2022-10-01T06:01:30;99633.56;;;12.70;86.04
10460;BME280;54412;51.206;6.888;2022-10-01T06:03:57;99633.38;;;12.60;85.86
10460;BME280;54412;51.206;6.888;2022-10-01T06:06:25;99634.63;;;12.67;85.27
10460;BME280;54412;51.206;6.888;2022-10-01T06:08:51;99644.25;;;12.68;85.15
10460;BME280;54412;51.206;6.888;2022-10-01T06:11:17;99641.00;;;12.76;85.03
10460;BME280;54412;51.206;6.888;2022-10-01T06:13:44;99637.63;;;12.63;85.58
10460;BME280;54412;51.206;6.888;2022-10-01T06:16:12;99640.41;;;12.72;85.56
10460;BME280;54412;51.206;6.888;2022-10-01T06:18:39;99655.50;;;12.59;86.30
10460;BME280;54412;51.206;6.888;2022-10-01T06:21:04;99644.88;;;12.72;85.50
10460;BME280;54412;51.206;6.888;2022-10-01T06:23:30;99648.50;;;12.82;84.89
10460;BME280;54412;51.206;6.888;2022-10-01T06:25:59;99655.94;;;12.77;85.27
10460;BME280;54412;51.206;6.888;2022-10-01T06:28:26;99659.53;;;12.76;85.07
10460;BME280;54412;51.206;6.888;2022-10-01T06:30:52;99663.41;;;12.83;84.50
10460;BME280;54412;51.206;6.888;2022-10-01T06:33:18;99667.09;;;12.93;83.87
10460;BME280;54412;51.206;6.888;2022-10-01T06:35:51;99669.03;;;13.02;83.03
10460;BME280;54412;51.206;6.888;2022-10-01T06:38:19;99679.00;;;12.98;83.53
10460;BME280;54412;51.206;6.888;2022-10-01T06:40:58;99666.19;;;13.05;83.03
10460;BME280;54412;51.206;6.888;2022-10-01T06:43:26;99664.75;;;13.12;82.72
10460;BME280;54412;51.206;6.888;2022-10-01T06:45:53;99665.97;;;13.19;83.04
10460;BME280;54412;51.206;6.888;2022-10-01T06:48:20;99666.31;;;13.03;83.14
10460;BME280;54412;51.206;6.888;2022-10-01T06:50:48;99663.94;;;13.22;82.65
10460;BME280;54412;51.206;6.888;2022-10-01T06:53:16;99661.63;;;13.07;83.75
10460;BME280;54412;51.206;6.888;2022-10-01T06:55:42;99667.69;;;12.96;84.16
10460;BME280;54412;51.206;6.888;2022-10-01T06:58:17;99665.63;;;13.12;83.95
10460;BME280;54412;51.206;6.888;2022-10-01T07:00:44;99667.06;;;13.16;84.29
10460;BME280;54412;51.206;6.888;2022-10-01T07:03:16;99667.44;;;13.23;84.82
10460;BME280;54412;51.206;6.888;2022-10-01T07:05:43;99669.75;;;13.27;84.86
10460;BME280;54412;51.206;6.888;2022-10-01T07:08:09;99661.41;;;13.21;85.69
10460;BME280;54412;51.206;6.888;2022-10-01T07:10:36;99657.50;;;13.37;84.93
10460;BME280;54412;51.206;6.888;2022-10-01T07:13:12;99674.34;;;13.36;85.04
10460;BME280;54412;51.206;6.888;2022-10-01T07:15:39;99670.84;;;13.36;85.89
10460;BME280;54412;51.206;6.888;2022-10-01T07:18:05;99673.38;;;13.37;85.25
10460;BME280;54412;51.206;6.888;2022-10-01T07:20:33;99682.31;;;13.47;84.98
10460;BME280;54412;51.206;6.888;2022-10-01T07:23:05;99686.03;;;13.45;85.17
10460;BME280;54412;51.206;6.888;2022-10-01T07:25:31;99680.63;;;13.46;84.89
10460;BME280;54412;51.206;6.888;2022-10-01T07:28:01;99684.25;;;13.45;84.86
10460;BME280;54412;51.206;6.888;2022-10-01T07:30:32;99679.56;;;13.49;85.30
10460;BME280;54412;51.206;6.888;2022-10-01T07:32:58;99686.78;;;13.47;85.71
10460;BME280;54412;51.206;6.888;2022-10-01T07:35:24;99679.06;;;13.55;85.23
10460;BME280;54412;51.206;6.888;2022-10-01T07:37:51;99684.84;;;13.60;84.63
10460;BME280;54412;51.206;6.888;2022-10-01T07:40:18;99690.53;;;13.67;84.86
10460;BME280;54412;51.206;6.888;2022-10-01T07:42:54;99697.75;;;13.64;85.01
10460;BME280;54412;51.206;6.888;2022-10-01T07:45:22;99699.53;;;13.53;86.11
10460;BME280;54412;51.206;6.888;2022-10-01T07:47:57;99704.38;;;13.59;86.44
10460;BME280;54412;51.206;6.888;2022-10-01T07:50:24;99712.19;;;13.60;86.21
10460;BME280;54412;51.206;6.888;2022-10-01T07:52:55;99712.34;;;13.70;86.43
10460;BME280;54412;51.206;6.888;2022-10-01T07:55:24;99724.13;;;13.66;87.01
10460;BME280;54412;51.206;6.888;2022-10-01T07:57:57;99722.78;;;13.60;87.54
10460;BME280;54412;51.206;6.888;2022-10-01T08:00:25;99714.25;;;13.57;87.68
10460;BME280;54412;51.206;6.888;2022-10-01T08:02:53;99722.69;;;13.73;87.73
10460;BME280;54412;51.206;6.888;2022-10-01T08:05:27;99724.38;;;13.85;86.43
10460;BME280;54412;51.206;6.888;2022-10-01T08:07:59;99721.13;;;13.82;87.03
10460;BME280;54412;51.206;6.888;2022-10-01T08:10:25;99731.16;;;13.89;86.72
10460;BME280;54412;51.206;6.888;2022-10-01T08:12:50;99726.22;;;13.85;87.33
10460;BME280;54412;51.206;6.888;2022-10-01T08:15:17;99717.91;;;14.00;86.52
10460;BME280;54412;51.206;6.888;2022-10-01T08:17:44;99721.88;;;13.95;86.79
10460;BME280;54412;51.206;6.888;2022-10-01T08:20:12;99732.00;;;14.01;86.17
10460;BME280;54412;51.206;6.888;2022-10-01T08:22:38;99734.16;;;14.07;86.49
10460;BME280;54412;51.206;6.888;2022-10-01T08:25:05;99736.94;;;14.05;86.50
10460;BME280;54412;51.206;6.888;2022-10-01T08:27:31;99731.41;;;14.19;86.32
10460;BME280;54412;51.206;6.888;2022-10-01T08:29:57;99743.72;;;14.20;85.72
10460;BME280;54412;51.206;6.888;2022-10-01T08:32:23;99747.00;;;14.35;85.46
10460;BME280;54412;51.206;6.888;2022-10-01T08:34:51;99736.22;;;14.25;86.11
10460;BME280;54412;51.206;6.888;2022-10-01T08:37:19;99747.59;;;14.27;86.23
10460;BME280;54412;51.206;6.888;2022-10-01T08:39:45;99752.91;;;14.27;86.54
10460;BME280;54412;51.206;6.888;2022-10-01T08:44:50;99756.59;;;14.25;86.46
10460;BME280;54412;51.206;6.888;2022-10-01T08:47:28;99771.91;;;14.21;86.73
10460;BME280;54412;51.206;6.888;2022-10-01T08:50:05;99766.59;;;14.21;86.58
10460;BME280;54412;51.206;6.888;2022-10-01T08:52:40;99763.25;;;14.41;85.46
10460;BME280;54412;51.206;6.888;2022-10-01T08:55:19;99763.16;;;14.32;85.43
10460;BME280;54412;51.206;6.888;2022-10-01T08:58:03;99776.44;;;14.32;86.20
10460;BME280;54412;51.206;6.888;2022-10-01T09:00:33;99770.28;;;14.31;86.87
10460;BME280;54412;51.206;6.888;2022-10-01T09:03:10;99768.09;;;14.36;86.69
10460;BME280;54412;51.206;6.888;2022-10-01T09:06:07;99772.19;;;14.51;86.48
10460;BME280;54412;51.206;6.888;2022-10-01T09:11:29;99772.06;;;14.53;86.19
10460;BME280;54412;51.206;6.888;2022-10-01T09:14:35;99773.59;;;14.55;85.76
10460;BME280;54412;51.206;6.888;2022-10-01T09:22:40;99791.38;;;14.44;86.64
10460;BME280;54412;51.206;6.888;2022-10-01T09:25:18;99788.81;;;14.53;87.46
10460;BME280;54412;51.206;6.888;2022-10-01T09:27:45;99795.34;;;14.60;86.94
10460;BME280;54412;51.206;6.888;2022-10-01T09:30:20;99798.59;;;14.42;87.73
10460;BME280;54412;51.206;6.888;2022-10-01T09:32:53;99795.47;;;14.37;88.40
10460;BME280;54412;51.206;6.888;2022-10-01T09:36:06;99799.53;;;14.41;88.74
10460;BME280;54412;51.206;6.888;2022-10-01T09:38:53;99795.09;;;14.41;88.13
10460;BME280;54412;51.206;6.888;2022-10-01T09:41:21;99794.03;;;14.44;88.97
10460;BME280;54412;51.206;6.888;2022-10-01T09:43:47;99802.84;;;14.44;89.51
10460;BME280;54412;51.206;6.888;2022-10-01T09:46:15;99798.47;;;14.54;89.23
10460;BME280;54412;51.206;6.888;2022-10-01T09:48:54;99814.38;;;14.43;90.33
10460;BME280;54412;51.206;6.888;2022-10-01T09:51:38;99809.34;;;14.51;90.38
10460;BME280;54412;51.206;6.888;2022-10-01T09:54:31;99815.38;;;14.42;91.13
10460;BME280;54412;51.206;6.888;2022-10-01T09:57:18;99817.66;;;14.47;91.30
10460;BME280;54412;51.206;6.888;2022-10-01T10:00:09;99817.03;;;14.54;90.78
10460;BME280;54412;51.206;6.888;2022-10-01T10:02:48;99805.72;;;14.52;90.86
10460;BME280;54412;51.206;6.888;2022-10-01T10:05:22;99808.72;;;14.59;90.38
10460;BME280;54412;51.206;6.888;2022-10-01T10:08:09;99816.78;;;14.68;88.88
10460;BME280;54412;51.206;6.888;2022-10-01T10:10:38;99816.91;;;14.78;89.35
10460;BME280;54412;51.206;6.888;2022-10-01T10:13:32;99820.75;;;14.85;89.40
10460;BME280;54412;51.206;6.888;2022-10-01T10:16:28;99831.13;;;14.99;89.02
10460;BME280;54412;51.206;6.888;2022-10-01T10:19:00;99826.31;;;14.82;88.17
10460;BME280;54412;51.206;6.888;2022-10-01T10:21:30;99827.50;;;15.00;88.75
10460;BME280;54412;51.206;6.888;2022-10-01T10:24:02;99829.63;;;15.17;88.51
10460;BME280;54412;51.206;6.888;2022-10-01T10:26:36;99826.81;;;15.30;87.62
10460;BME280;54412;51.206;6.888;2022-10-01T10:29:06;99837.63;;;15.49;86.93
10460;BME280;54412;51.206;6.888;2022-10-01T10:31:43;99845.44;;;15.61;85.69
10460;BME280;54412;51.206;6.888;2022-10-01T10:34:41;99837.03;;;15.98;84.33
10460;BME280;54412;51.206;6.888;2022-10-01T10:37:15;99851.88;;;16.21;80.84
10460;BME280;54412;51.206;6.888;2022-10-01T10:39:47;99846.66;;;16.91;79.50
10460;BME280;54412;51.206;6.888;2022-10-01T10:42:16;99851.94;;;17.40;77.96
10460;BME280;54412;51.206;6.888;2022-10-01T10:44:46;99859.56;;;17.54;75.86
10460;BME280;54412;51.206;6.888;2022-10-01T10:47:16;99857.91;;;17.62;75.64
10460;BME280;54412;51.206;6.888;2022-10-01T10:49:43;99864.63;;;18.14;74.18
10460;BME280;54412;51.206;6.888;2022-10-01T10:55:00;99871.47;;;18.82;72.76
10460;BME280;54412;51.206;6.888;2022-10-01T10:57:32;99873.16;;;18.46;70.22
10460;BME280;54412;51.206;6.888;2022-10-01T11:02:27;99884.97;;;18.25;70.42
10460;BME280;54412;51.206;6.888;2022-10-01T11:05:24;99875.50;;;18.59;69.32
10460;BME280;54412;51.206;6.888;2022-10-01T11:08:03;99878.47;;;19.20;68.84
10460;BME280;54412;51.206;6.888;2022-10-01T11:11:00;99878.06;;;18.88;68.44
10460;BME280;54412;51.206;6.888;2022-10-01T11:14:06;99885.72;;;17.98;72.21
10460;BME280;54412;51.206;6.888;2022-10-01T11:17:10;99885.00;;;17.67;72.88
10460;BME280;54412;51.206;6.888;2022-10-01T11:32:21;99892.03;;;16.80;73.83
10460;BME280;54412;51.206;6.888;2022-10-01T11:38:44;99886.09;;;18.32;71.55
10460;BME280;54412;51.206;6.888;2022-10-01T11:41:29;99887.69;;;19.08;68.15
10460;BME280;54412;51.206;6.888;2022-10-01T11:44:38;99887.53;;;19.63;66.04
10460;BME280;54412;51.206;6.888;2022-10-01T11:47:17;99891.63;;;19.58;64.62
10460;BME280;54412;51.206;6.888;2022-10-01T11:50:15;99898.78;;;20.20;62.49
10460;BME280;54412;51.206;6.888;2022-10-01T11:55:35;99904.88;;;19.32;62.84
10460;BME280;54412;51.206;6.888;2022-10-01T11:58:50;99915.59;;;19.32;61.84
10460;BME280;54412;51.206;6.888;2022-10-01T12:01:48;99907.13;;;19.27;62.24
10460;BME280;54412;51.206;6.888;2022-10-01T12:04:48;99912.25;;;18.84;60.77
10460;BME280;54412;51.206;6.888;2022-10-01T12:10:39;99912.63;;;18.33;61.20
10460;BME280;54412;51.206;6.888;2022-10-01T12:13:30;99927.75;;;19.17;59.86
10460;BME280;54412;51.206;6.888;2022-10-01T12:16:19;99941.44;;;19.41;58.10
10460;BME280;54412;51.206;6.888;2022-10-01T12:19:09;99944.47;;;18.83;58.37
10460;BME280;54412;51.206;6.888;2022-10-01T12:21:53;99942.16;;;19.61;59.30
10460;BME280;54412;51.206;6.888;2022-10-01T12:24:30;99942.28;;;19.42;57.95
10460;BME280;54412;51.206;6.888;2022-10-01T12:27:34;99937.06;;;19.85;58.37
10460;BME280;54412;51.206;6.888;2022-10-01T12:30:22;99944.06;;;19.14;58.51
10460;BME280;54412;51.206;6.888;2022-10-01T12:36:00;99938.91;;;20.37;57.03
10460;BME280;54412;51.206;6.888;2022-10-01T12:38:54;99931.06;;;20.61;55.08
10460;BME280;54412;51.206;6.888;2022-10-01T12:42:02;99940.25;;;20.59;53.89
10460;BME280;54412;51.206;6.888;2022-10-01T12:44:51;99945.81;;;20.65;53.76
10460;BME280;54412;51.206;6.888;2022-10-01T12:50:36;99967.78;;;19.81;60.03
10460;BME280;54412;51.206;6.888;2022-10-01T12:53:30;99969.38;;;19.56;65.88
10460;BME280;54412;51.206;6.888;2022-10-01T12:56:25;99969.31;;;18.93;66.24
10460;BME280;54412;51.206;6.888;2022-10-01T13:02:08;99963.97;;;18.93;67.91
10460;BME280;54412;51.206;6.888;2022-10-01T13:13:29;99996.50;;;18.88;69.95
10460;BME280;54412;51.206;6.888;2022-10-01T13:16:37;99999.31;;;18.87;70.38
10460;BME280;54412;51.206;6.888;2022-10-01T13:19:18;99993.75;;;18.42;70.95
10460;BME280;54412;51.206;6.888;2022-10-01T13:22:33;99993.00;;;18.30;69.78
10460;BME280;54412;51.206;6.888;2022-10-01T13:28:21;99995.34;;;17.76;72.63
10460;BME280;54412;51.206;6.888;2022-10-01T13:31:01;100007.69;;;17.67;72.19
10460;BME280;54412;51.206;6.888;2022-10-01T13:33:34;100010.75;;;17.63;73.23
10460;BME280;54412;51.206;6.888;2022-10-01T13:36:08;100011.88;;;17.60;73.88
10460;BME280;54412;51.206;6.888;2022-10-01T13:43:52;100011.25;;;17.47;75.20
10460;BME280;54412;51.206;6.888;2022-10-01T13:46:25;100025.69;;;17.45;75.38
10460;BME280;54412;51.206;6.888;2022-10-01T13:48:54;100006.69;;;17.59;75.65
10460;BME280;54412;51.206;6.888;2022-10-01T13:51:20;100018.44;;;17.56;76.73
10460;BME280;54412;51.206;6.888;2022-10-01T13:53:56;100024.78;;;17.65;75.36
10460;BME280;54412;51.206;6.888;2022-10-01T13:56:31;100028.16;;;17.67;76.07
10460;BME280;54412;51.206;6.888;2022-10-01T13:58:59;100049.16;;;17.51;75.77
10460;BME280;54412;51.206;6.888;2022-10-01T14:01:37;100063.72;;;17.47;75.93
10460;BME280;54412;51.206;6.888;2022-10-01T14:04:42;100066.44;;;17.06;76.19
10460;BME280;54412;51.206;6.888;2022-10-01T14:07:33;100052.47;;;16.72;74.64
10460;BME280;54412;51.206;6.888;2022-10-01T14:10:00;100068.50;;;16.61;73.16
10460;BME280;54412;51.206;6.888;2022-10-01T14:12:34;100077.97;;;16.43;73.47
10460;BME280;54412;51.206;6.888;2022-10-01T14:15:25;100067.72;;;16.49;74.09
10460;BME280;54412;51.206;6.888;2022-10-01T14:18:21;100076.88;;;16.56;74.28
10460;BME280;54412;51.206;6.888;2022-10-01T14:21:22;100082.00;;;16.48;75.09
10460;BME280;54412;51.206;6.888;2022-10-01T14:24:38;100075.56;;;16.51;75.27
10460;BME280;54412;51.206;6.888;2022-10-01T14:30:08;100084.03;;;16.56;75.72
10460;BME280;54412;51.206;6.888;2022-10-01T14:36:07;100109.13;;;16.95;75.34
10460;BME280;54412;51.206;6.888;2022-10-01T14:38:34;100108.94;;;16.87;76.49
10460;BME280;54412;51.206;6.888;2022-10-01T14:41:00;100111.09;;;17.34;76.83
10460;BME280;54412;51.206;6.888;2022-10-01T14:43:29;100099.50;;;17.44;75.72
10460;BME280;54412;51.206;6.888;2022-10-01T14:46:05;100115.63;;;17.22;74.67
10460;BME280;54412;51.206;6.888;2022-10-01T14:48:35;100104.59;;;17.06;75.02
10460;BME280;54412;51.206;6.888;2022-10-01T14:51:19;100115.56;;;16.92;75.76
10460;BME280;54412;51.206;6.888;2022-10-01T14:53:46;100114.41;;;16.85;76.14
10460;BME280;54412;51.206;6.888;2022-10-01T14:56:13;100120.44;;;16.87;75.80
10460;BME280;54412;51.206;6.888;2022-10-01T14:59:21;100119.28;;;17.01;76.99
10460;BME280;54412;51.206;6.888;2022-10-01T15:01:38;100132.31;;;17.04;76.43